createdAt,value
2018-06-27T00:00:02.781Z,76.64
2018-06-27T00:01:07.328Z,76.90
2018-06-27T00:02:11.811Z,76.27
2018-06-27T00:03:18.249Z,76.56
2018-06-27T00:04:23.613Z,76.80
2018-06-27T00:05:28.461Z,76.95
2018-06-27T00:06:32.972Z,75.89
2018-06-27T00:07:38.433Z,76.87
2018-06-27T00:08:43.006Z,76.28
2018-06-27T00:09:47.539Z,76.67
2018-06-27T00:10:52.013Z,76.89
2018-06-27T00:11:56.811Z,76.48
2018-06-27T00:13:02.609Z,76.22
2018-06-27T00:14:07.231Z,77.13
2018-06-27T00:15:11.769Z,77.34
2018-06-27T00:16:16.338Z,77.45
2018-06-27T00:17:21.023Z,77.80
2018-06-27T00:18:25.876Z,76.49
2018-06-27T00:19:30.394Z,76.84
2018-06-27T00:20:36.517Z,77.16
2018-06-27T00:21:41.122Z,78.14
2018-06-27T00:22:45.652Z,77.25
2018-06-27T00:23:51.161Z,77.24
2018-06-27T00:24:55.991Z,77.87
2018-06-27T00:26:00.535Z,76.77
2018-06-27T00:27:05.049Z,76.64
2018-06-27T00:28:09.572Z,77.78
2018-06-27T00:29:15.890Z,77.73
2018-06-27T00:30:21.380Z,78.81
2018-06-27T00:31:26.871Z,77.97
2018-06-27T00:32:31.474Z,78.69
2018-06-27T00:33:36.036Z,78.26
2018-06-27T00:34:41.161Z,78.30
2018-06-27T00:35:45.694Z,78.22
2018-06-27T00:36:50.529Z,78.54
2018-06-27T00:37:55.037Z,78.12
2018-06-27T00:39:00.227Z,77.69
2018-06-27T00:40:04.754Z,78.31
2018-06-27T00:41:09.278Z,78.23
2018-06-27T00:42:13.794Z,77.39
2018-06-27T00:43:18.572Z,78.80
2018-06-27T00:44:23.375Z,78.00
2018-06-27T00:45:28.813Z,77.91
2018-06-27T00:46:35.592Z,78.77
2018-06-27T00:47:40.192Z,78.68
2018-06-27T00:48:44.771Z,78.81
2018-06-27T00:49:49.620Z,78.87
2018-06-27T00:50:54.154Z,78.61
2018-06-27T00:51:58.712Z,77.81
2018-06-27T00:53:03.242Z,78.26
2018-06-27T00:54:10.453Z,78.62
2018-06-27T00:55:15.682Z,78.63
2018-06-27T00:56:21.588Z,78.18
2018-06-27T00:57:26.086Z,78.50
2018-06-27T00:58:31.509Z,78.48
2018-06-27T00:59:36.062Z,78.49
2018-06-27T01:00:40.566Z,78.90
2018-06-27T01:01:45.843Z,78.23
2018-06-27T01:02:50.615Z,79.30
2018-06-27T01:03:55.130Z,79.10
2018-06-27T01:04:59.751Z,78.78
2018-06-27T01:06:04.294Z,78.91
2018-06-27T01:07:08.785Z,79.23
2018-06-27T01:08:13.303Z,79.22
2018-06-27T01:09:18.136Z,79.35
2018-06-27T01:10:22.713Z,79.64
2018-06-27T01:11:27.229Z,80.63
2018-06-27T01:12:31.738Z,79.37
2018-06-27T01:13:36.256Z,80.25
2018-06-27T01:14:40.762Z,80.34
2018-06-27T01:15:45.573Z,80.87
2018-06-27T01:16:50.151Z,80.61
2018-06-27T01:17:57.002Z,80.71
2018-06-27T01:19:01.606Z,81.89
2018-06-27T01:20:06.571Z,81.25
2018-06-27T01:21:11.387Z,81.19
2018-06-27T01:22:17.226Z,81.66
2018-06-27T01:23:21.738Z,80.71
2018-06-27T01:24:27.000Z,81.17
2018-06-27T01:25:31.545Z,82.45
2018-06-27T01:26:36.918Z,81.98
2018-06-27T01:27:41.463Z,81.70
2018-06-27T01:28:46.288Z,81.90
2018-06-27T01:29:54.108Z,82.29
2018-06-27T01:30:58.675Z,81.96
2018-06-27T01:32:03.214Z,82.07
2018-06-27T01:33:07.724Z,82.18
2018-06-27T01:34:12.209Z,81.33
2018-06-27T01:35:16.995Z,83.16
2018-06-27T01:36:21.477Z,83.06
2018-06-27T01:37:26.609Z,82.21
2018-06-27T01:38:31.478Z,83.59
2018-06-27T01:39:36.623Z,83.17
2018-06-27T01:40:41.526Z,82.49
2018-06-27T01:41:46.331Z,82.92
2018-06-27T01:42:53.133Z,82.62
2018-06-27T01:43:57.665Z,82.68
2018-06-27T01:45:02.336Z,82.89
2018-06-27T01:46:07.761Z,82.28
2018-06-27T01:47:12.271Z,82.19
2018-06-27T01:48:17.113Z,82.60
2018-06-27T01:49:21.604Z,81.76
2018-06-27T01:50:26.901Z,82.28
2018-06-27T01:51:31.497Z,83.29
2018-06-27T01:52:36.974Z,83.02
2018-06-27T01:53:41.521Z,82.86
2018-06-27T01:54:47.282Z,83.24
2018-06-27T01:55:52.382Z,83.10
2018-06-27T01:56:56.840Z,82.90
2018-06-27T01:58:02.036Z,84.03
2018-06-27T01:59:07.455Z,83.78
2018-06-27T02:00:11.988Z,83.13
2018-06-27T02:01:16.813Z,83.68
2018-06-27T02:02:21.288Z,83.43
2018-06-27T02:03:25.781Z,83.12
2018-06-27T02:04:30.265Z,83.69
2018-06-27T02:05:36.658Z,83.65
2018-06-27T02:06:41.177Z,84.29
2018-06-27T02:07:47.647Z,83.19
2018-06-27T02:08:53.000Z,83.96
2018-06-27T02:09:57.518Z,83.49
2018-06-27T02:11:02.038Z,83.34
2018-06-27T02:12:06.529Z,83.29
2018-06-27T02:13:11.245Z,82.38
2018-06-27T02:14:16.059Z,82.66
2018-06-27T02:15:20.512Z,82.55
2018-06-27T02:16:25.006Z,83.34
2018-06-27T02:17:29.486Z,83.27
2018-06-27T02:18:34.009Z,83.28
2018-06-27T02:19:38.519Z,83.06
2018-06-27T02:20:43.301Z,82.94
2018-06-27T02:21:47.814Z,82.31
2018-06-27T02:22:54.691Z,83.60
2018-06-27T02:23:59.418Z,82.11
2018-06-27T02:25:05.368Z,82.19
2018-06-27T02:26:09.905Z,82.67
2018-06-27T02:27:14.686Z,82.25
2018-06-27T02:28:19.238Z,83.32
2018-06-27T02:29:23.739Z,83.39
2018-06-27T02:30:28.232Z,83.08
2018-06-27T02:31:32.730Z,83.35
2018-06-27T02:32:37.342Z,84.01
2018-06-27T02:33:42.156Z,83.16
2018-06-27T02:34:46.759Z,83.33
2018-06-27T02:35:51.677Z,83.60
2018-06-27T02:36:57.956Z,83.83
2018-06-27T02:38:02.457Z,82.60
2018-06-27T02:39:07.778Z,83.31
2018-06-27T02:40:12.607Z,83.31
2018-06-27T02:41:17.097Z,83.18
2018-06-27T02:42:21.776Z,82.44
2018-06-27T02:43:26.364Z,83.51
2018-06-27T02:44:30.877Z,82.61
2018-06-27T02:45:36.319Z,82.73
2018-06-27T02:46:41.526Z,82.55
2018-06-27T02:47:46.108Z,83.19
2018-06-27T02:48:50.660Z,83.34
2018-06-27T02:49:55.298Z,83.55
2018-06-27T02:50:59.804Z,82.73
2018-06-27T02:52:04.631Z,83.03
2018-06-27T02:53:09.166Z,82.94
2018-06-27T02:54:13.910Z,82.73
2018-06-27T02:55:18.497Z,83.09
2018-06-27T02:56:23.095Z,83.00
2018-06-27T02:57:27.620Z,84.29
2018-06-27T02:58:33.197Z,83.81
2018-06-27T02:59:38.233Z,83.70
2018-06-27T03:00:42.740Z,83.98
2018-06-27T03:01:48.096Z,83.31
2018-06-27T03:02:53.057Z,83.94
2018-06-27T03:03:58.013Z,83.01
2018-06-27T03:05:03.373Z,84.06
2018-06-27T03:06:08.757Z,85.00
2018-06-27T03:07:13.264Z,84.04
2018-06-27T03:08:20.777Z,84.63
2018-06-27T03:09:25.483Z,85.11
2018-06-27T03:10:30.077Z,83.90
2018-06-27T03:11:35.039Z,83.73
2018-06-27T03:12:39.716Z,84.10
2018-06-27T03:13:44.349Z,84.29
2018-06-27T03:14:49.007Z,83.45
2018-06-27T03:15:54.196Z,84.44
2018-06-27T03:17:00.099Z,84.29
2018-06-27T03:18:07.702Z,84.73
2018-06-27T03:19:12.682Z,84.01
2018-06-27T03:20:17.365Z,84.02
2018-06-27T03:21:22.257Z,83.85
2018-06-27T03:22:26.749Z,83.99
2018-06-27T03:23:31.574Z,84.24
2018-06-27T03:24:36.901Z,83.97
2018-06-27T03:25:41.378Z,84.62
2018-06-27T03:26:45.911Z,83.91
2018-06-27T03:27:50.420Z,84.02
2018-06-27T03:28:54.899Z,83.94
2018-06-27T03:29:59.716Z,84.11
2018-06-27T03:31:04.309Z,84.66
2018-06-27T03:32:09.454Z,84.19
2018-06-27T03:33:13.959Z,84.37
2018-06-27T03:34:19.176Z,83.14
2018-06-27T03:35:23.700Z,84.14
2018-06-27T03:36:28.670Z,83.97
2018-06-27T03:37:33.200Z,84.13
2018-06-27T03:38:37.871Z,83.97
2018-06-27T03:39:42.658Z,83.26
2018-06-27T03:40:48.507Z,83.74
2018-06-27T03:41:52.990Z,84.01
2018-06-27T03:42:59.178Z,84.92
2018-06-27T03:44:03.706Z,85.25
2018-06-27T03:45:11.216Z,84.58
2018-06-27T03:46:15.745Z,84.27
2018-06-27T03:47:20.310Z,84.14
2018-06-27T03:48:24.862Z,83.81
2018-06-27T03:49:29.813Z,84.87
2018-06-27T03:50:35.300Z,82.80
2018-06-27T03:51:40.509Z,83.85
2018-06-27T03:52:48.129Z,83.55
2018-06-27T03:53:59.026Z,84.04
2018-06-27T03:55:04.563Z,84.03
2018-06-27T03:56:10.160Z,83.17
2018-06-27T03:57:15.759Z,83.92
2018-06-27T03:58:20.305Z,84.73
2018-06-27T03:59:24.821Z,83.19
2018-06-27T04:00:30.151Z,84.36
2018-06-27T04:01:35.918Z,84.56
2018-06-27T04:02:40.601Z,84.25
2018-06-27T04:03:46.386Z,84.41
2018-06-27T04:04:51.065Z,84.29
2018-06-27T04:05:56.224Z,85.20
2018-06-27T04:07:00.846Z,85.17
2018-06-27T04:08:06.443Z,85.11
2018-06-27T04:09:12.361Z,84.58
2018-06-27T04:10:16.974Z,85.42
2018-06-27T04:11:21.490Z,84.20
2018-06-27T04:12:26.380Z,85.35
2018-06-27T04:13:30.955Z,84.84
2018-06-27T04:14:36.642Z,84.48
2018-06-27T04:15:41.129Z,84.66
2018-06-27T04:16:45.634Z,83.82
2018-06-27T04:17:50.399Z,84.10
2018-06-27T04:18:54.903Z,85.14
2018-06-27T04:19:59.427Z,83.77
2018-06-27T04:21:05.279Z,84.87
2018-06-27T04:22:09.853Z,84.07
2018-06-27T04:23:15.069Z,83.69
2018-06-27T04:24:19.591Z,84.05
2018-06-27T04:25:28.708Z,83.07
2018-06-27T04:26:33.210Z,83.41
2018-06-27T04:27:38.059Z,83.57
2018-06-27T04:28:42.901Z,84.39
2018-06-27T04:29:47.405Z,84.60
2018-06-27T04:30:52.632Z,83.61
2018-06-27T04:31:57.462Z,82.80
2018-06-27T04:33:02.398Z,82.82
2018-06-27T04:34:07.209Z,84.37
2018-06-27T04:35:12.626Z,83.67
2018-06-27T04:36:17.158Z,84.10
2018-06-27T04:37:22.618Z,83.51
2018-06-27T04:38:27.143Z,83.27
2018-06-27T04:39:32.696Z,84.25
2018-06-27T04:40:37.504Z,83.81
2018-06-27T04:41:42.062Z,83.91
2018-06-27T04:42:46.614Z,83.08
2018-06-27T04:43:51.966Z,82.71
2018-06-27T04:44:56.495Z,83.29
2018-06-27T04:46:01.040Z,84.35
2018-06-27T04:47:07.630Z,83.32
2018-06-27T04:48:13.702Z,83.85
2018-06-27T04:49:18.529Z,84.04
2018-06-27T04:50:23.144Z,84.98
2018-06-27T04:51:27.740Z,84.67
2018-06-27T04:52:32.248Z,83.85
2018-06-27T04:53:37.104Z,84.02
2018-06-27T04:54:42.336Z,84.15
2018-06-27T04:55:46.890Z,83.64
2018-06-27T04:56:51.452Z,83.83
2018-06-27T04:57:55.933Z,83.75
2018-06-27T04:59:00.532Z,83.27
2018-06-27T05:00:05.625Z,83.66
2018-06-27T05:01:11.313Z,84.97
2018-06-27T05:02:17.243Z,84.64
2018-06-27T05:03:22.245Z,84.43
2018-06-27T05:04:27.741Z,83.54
2018-06-27T05:05:32.273Z,83.04
2018-06-27T05:06:37.554Z,84.77
2018-06-27T05:07:42.054Z,83.82
2018-06-27T05:08:49.461Z,83.64
2018-06-27T05:09:54.135Z,83.66
2018-06-27T05:10:58.665Z,82.95
2018-06-27T05:12:03.262Z,84.11
2018-06-27T05:13:08.181Z,83.42
2018-06-27T05:14:12.791Z,82.75
2018-06-27T05:15:19.385Z,83.95
2018-06-27T05:16:25.086Z,84.33
2018-06-27T05:17:31.516Z,83.72
2018-06-27T05:18:37.921Z,83.38
2018-06-27T05:19:44.627Z,83.75
2018-06-27T05:20:56.345Z,83.91
2018-06-27T05:22:01.141Z,84.28
2018-06-27T05:23:06.678Z,82.83
2018-06-27T05:24:11.696Z,83.33
2018-06-27T05:25:16.330Z,82.71
2018-06-27T05:26:21.263Z,82.62
2018-06-27T05:27:26.954Z,82.50
2018-06-27T05:28:31.669Z,82.77
2018-06-27T05:29:36.409Z,83.04
2018-06-27T05:30:41.833Z,83.67
2018-06-27T05:31:47.328Z,83.90
2018-06-27T05:32:53.317Z,83.88
2018-06-27T05:33:58.829Z,84.05
2018-06-27T05:35:06.682Z,82.83
2018-06-27T05:36:11.451Z,83.33
2018-06-27T05:37:17.206Z,83.41
2018-06-27T05:38:21.840Z,83.59
2018-06-27T05:39:26.818Z,83.43
2018-06-27T05:40:32.091Z,82.17
2018-06-27T05:41:38.266Z,82.62
2018-06-27T05:42:42.817Z,82.10
2018-06-27T05:43:47.330Z,82.34
2018-06-27T05:44:51.903Z,82.66
2018-06-27T05:45:57.722Z,82.17
2018-06-27T05:47:02.287Z,83.00
2018-06-27T05:48:06.817Z,82.26
2018-06-27T05:49:12.158Z,83.27
2018-06-27T05:50:17.564Z,82.51
2018-06-27T05:51:22.785Z,83.31
2018-06-27T05:52:27.710Z,82.88
2018-06-27T05:53:32.276Z,82.39
2018-06-27T05:54:37.828Z,82.33
2018-06-27T05:55:42.365Z,81.35
2018-06-27T05:56:46.858Z,82.35
2018-06-27T05:57:52.336Z,81.56
2018-06-27T05:58:58.833Z,82.23
2018-06-27T06:00:04.786Z,81.68
2018-06-27T06:01:10.867Z,81.81
2018-06-27T06:02:15.562Z,82.22
2018-06-27T06:03:20.911Z,81.85
2018-06-27T06:04:25.482Z,82.44
2018-06-27T06:05:30.290Z,81.21
2018-06-27T06:06:34.855Z,81.54
2018-06-27T06:07:40.336Z,82.12
2018-06-27T06:08:46.033Z,80.99
2018-06-27T06:09:50.728Z,82.19
2018-06-27T06:10:55.459Z,81.05
2018-06-27T06:12:00.577Z,81.09
2018-06-27T06:13:06.121Z,80.20
2018-06-27T06:14:10.777Z,80.59
2018-06-27T06:15:15.419Z,81.52
2018-06-27T06:16:19.949Z,80.88
2018-06-27T06:17:24.870Z,81.02
2018-06-27T06:18:29.916Z,81.27
2018-06-27T06:19:34.580Z,80.62
2018-06-27T06:20:39.217Z,80.84
2018-06-27T06:21:44.775Z,80.55
2018-06-27T06:22:52.320Z,80.59
2018-06-27T06:23:57.252Z,80.51
2018-06-27T06:25:02.204Z,80.12
2018-06-27T06:26:07.905Z,79.81
2018-06-27T06:27:13.816Z,80.17
2018-06-27T06:28:18.788Z,79.84
2018-06-27T06:29:23.414Z,79.06
2018-06-27T06:30:29.789Z,79.72
2018-06-27T06:31:34.411Z,78.41
2018-06-27T06:32:39.012Z,79.07
2018-06-27T06:33:43.611Z,78.17
2018-06-27T06:34:48.859Z,78.18
2018-06-27T06:35:54.862Z,78.14
2018-06-27T06:36:59.859Z,78.10
2018-06-27T06:38:04.590Z,79.07
2018-06-27T06:39:09.667Z,78.86
2018-06-27T06:40:14.310Z,77.30
2018-06-27T06:41:18.817Z,77.06
2018-06-27T06:42:26.247Z,77.42
2018-06-27T06:43:31.261Z,77.70
2018-06-27T06:44:35.815Z,77.05
2018-06-27T06:45:40.365Z,77.02
2018-06-27T06:46:44.928Z,76.84
2018-06-27T06:47:50.153Z,76.71
2018-06-27T06:48:55.374Z,76.12
2018-06-27T06:50:00.381Z,76.28
2018-06-27T06:51:04.957Z,76.43
2018-06-27T06:52:10.534Z,75.15
2018-06-27T06:53:15.169Z,74.87
2018-06-27T06:54:19.696Z,75.39
2018-06-27T06:55:27.535Z,75.54
2018-06-27T06:56:32.395Z,75.16
2018-06-27T06:57:51.291Z,74.87
2018-06-27T06:58:55.849Z,74.70
2018-06-27T07:00:00.372Z,74.53
2018-06-27T07:01:05.458Z,74.65
2018-06-27T07:02:10.048Z,74.69
2018-06-27T07:03:15.746Z,74.51
2018-06-27T07:04:20.325Z,73.81
2018-06-27T07:05:24.850Z,73.55
2018-06-27T07:06:30.262Z,73.41
2018-06-27T07:07:35.534Z,73.65
2018-06-27T07:08:40.060Z,72.96
2018-06-27T07:09:46.459Z,72.61
2018-06-27T07:10:52.496Z,72.58
2018-06-27T07:11:58.446Z,72.00
2018-06-27T07:13:02.986Z,72.04
2018-06-27T07:14:07.569Z,71.81
2018-06-27T07:15:13.741Z,72.16
2018-06-27T07:16:19.509Z,71.24
2018-06-27T07:17:24.235Z,71.38
2018-06-27T07:18:29.281Z,71.03
2018-06-27T07:19:35.063Z,70.96
2018-06-27T07:20:39.661Z,71.03
2018-06-27T07:21:44.416Z,70.97
2018-06-27T07:22:51.231Z,70.61
2018-06-27T07:23:57.329Z,70.38
2018-06-27T07:25:01.866Z,70.59
2018-06-27T07:26:06.397Z,69.84
2018-06-27T07:27:11.247Z,69.57
2018-06-27T07:28:15.793Z,69.02
2018-06-27T07:29:21.730Z,68.84
2018-06-27T07:30:26.337Z,68.52
2018-06-27T07:31:30.884Z,68.00
2018-06-27T07:32:35.689Z,68.34
2018-06-27T07:33:40.508Z,67.69
2018-06-27T07:34:45.232Z,67.54
2018-06-27T07:35:51.070Z,67.61
2018-06-27T07:36:55.602Z,67.45
2018-06-27T07:38:02.039Z,67.05
2018-06-27T07:39:08.150Z,67.28
2018-06-27T07:40:14.717Z,66.77
2018-06-27T07:41:19.450Z,66.54
2018-06-27T07:42:24.599Z,66.81
2018-06-27T07:43:29.251Z,65.87
2018-06-27T07:44:34.001Z,65.83
2018-06-27T07:45:38.683Z,65.70
2018-06-27T07:46:43.391Z,64.77
2018-06-27T07:47:48.047Z,65.21
2018-06-27T07:48:52.925Z,65.08
2018-06-27T07:49:57.561Z,65.13
2018-06-27T07:51:02.224Z,64.57
2018-06-27T07:52:06.859Z,64.31
2018-06-27T07:53:12.129Z,63.69
2018-06-27T07:54:17.096Z,63.93
2018-06-27T07:55:21.804Z,63.83
2018-06-27T07:56:26.422Z,63.27
2018-06-27T07:57:31.505Z,63.09
2018-06-27T07:58:36.591Z,62.23
2018-06-27T07:59:41.300Z,62.73
2018-06-27T08:00:47.488Z,62.21
2018-06-27T08:01:52.571Z,61.96
2018-06-27T08:02:57.221Z,61.67
2018-06-27T08:05:07.206Z,61.42
2018-06-27T08:06:14.041Z,61.47
2018-06-27T08:07:18.839Z,61.33
2018-06-27T08:08:23.386Z,60.74
2018-06-27T08:09:28.257Z,60.12
2018-06-27T08:10:32.942Z,60.21
2018-06-27T08:11:37.590Z,60.13
2018-06-27T08:12:43.115Z,59.63
2018-06-27T08:13:47.831Z,60.06
2018-06-27T08:14:53.333Z,58.92
2018-06-27T08:15:58.678Z,59.11
2018-06-27T08:17:05.227Z,58.83
2018-06-27T08:18:12.258Z,58.87
2018-06-27T08:19:20.289Z,58.28
2018-06-27T08:20:26.676Z,58.62
2018-06-27T08:21:32.406Z,57.79
2018-06-27T08:23:40.756Z,56.74
2018-06-27T08:24:46.638Z,56.73
2018-06-27T08:25:53.433Z,55.86
2018-06-27T08:26:58.028Z,56.15
2018-06-27T08:28:02.605Z,55.28
2018-06-27T08:29:08.837Z,55.45
2018-06-27T08:30:13.445Z,54.54
2018-06-27T08:31:19.475Z,54.47
2018-06-27T08:32:25.028Z,54.87
2018-06-27T08:33:29.662Z,54.84
2018-06-27T08:34:34.426Z,55.03
2018-06-27T08:35:39.036Z,54.87
2018-06-27T08:36:44.646Z,54.58
2018-06-27T08:37:50.509Z,54.09
2018-06-27T08:38:57.157Z,54.08
2018-06-27T08:40:01.846Z,53.98
2018-06-27T08:41:06.573Z,53.40
2018-06-27T08:42:12.223Z,52.74
2018-06-27T08:43:16.798Z,52.86
2018-06-27T08:44:21.926Z,52.19
2018-06-27T08:45:28.802Z,52.32
2018-06-27T08:46:33.507Z,51.87
2018-06-27T08:47:38.079Z,52.28
2018-06-27T08:48:45.190Z,51.72
2018-06-27T08:49:50.273Z,50.78
2018-06-27T08:50:54.844Z,51.36
2018-06-27T08:52:00.187Z,50.76
2018-06-27T08:53:05.716Z,50.88
2018-06-27T08:54:10.238Z,51.04
2018-06-27T08:55:15.904Z,50.57
2018-06-27T08:56:21.534Z,50.97
2018-06-27T08:57:26.456Z,50.99
2018-06-27T08:58:31.329Z,50.95
2018-06-27T08:59:37.443Z,51.29
2018-06-27T09:00:42.569Z,51.15
2018-06-27T09:01:47.445Z,51.18
2018-06-27T09:02:53.246Z,51.12
2018-06-27T09:03:57.810Z,50.88
2018-06-27T09:05:02.660Z,50.54
2018-06-27T09:06:07.263Z,50.50
2018-06-27T09:07:13.347Z,51.21
2018-06-27T09:08:17.982Z,50.30
2018-06-27T09:09:23.318Z,50.02
2018-06-27T09:10:29.740Z,49.91
2018-06-27T09:11:34.405Z,50.14
2018-06-27T09:12:40.613Z,49.92
2018-06-27T09:13:46.857Z,49.56
2018-06-27T09:14:51.898Z,49.70
2018-06-27T09:15:57.710Z,49.68
2018-06-27T09:17:03.349Z,49.32
2018-06-27T09:18:07.897Z,49.19
2018-06-27T09:19:12.534Z,48.95
2018-06-27T09:20:17.415Z,49.40
2018-06-27T09:21:23.242Z,48.75
2018-06-27T09:22:29.246Z,49.61
2018-06-27T09:23:33.993Z,49.56
2018-06-27T09:24:39.293Z,49.18
2018-06-27T09:25:43.957Z,48.91
2018-06-27T09:26:49.430Z,49.33
2018-06-27T09:27:54.433Z,48.04
2018-06-27T09:29:00.996Z,47.96
2018-06-27T09:30:06.656Z,47.82
2018-06-27T09:31:12.264Z,47.92
2018-06-27T09:32:17.617Z,48.29
2018-06-27T09:33:25.952Z,48.13
2018-06-27T09:34:30.643Z,47.94
2018-06-27T09:35:35.290Z,47.74
2018-06-27T09:36:40.447Z,48.00
2018-06-27T09:37:45.366Z,48.05
2018-06-27T09:38:50.133Z,47.29
2018-06-27T09:39:54.888Z,47.14
2018-06-27T09:41:00.427Z,47.62
2018-06-27T09:42:05.649Z,48.15
2018-06-27T09:43:16.536Z,48.07
2018-06-27T09:44:21.601Z,48.29
2018-06-27T09:45:27.232Z,48.50
2018-06-27T09:46:31.912Z,48.74
2018-06-27T09:47:36.888Z,48.42
2018-06-27T09:48:42.524Z,48.03
2018-06-27T09:49:47.239Z,48.12
2018-06-27T09:50:52.806Z,47.84
2018-06-27T09:51:58.536Z,47.37
2018-06-27T09:53:05.373Z,46.94
2018-06-27T09:54:10.566Z,46.37
2018-06-27T09:55:16.258Z,46.42
2018-06-27T09:56:22.924Z,46.59
2018-06-27T09:57:27.749Z,46.54
2018-06-27T09:58:32.467Z,46.46
2018-06-27T09:59:40.798Z,46.05
2018-06-27T10:00:47.165Z,46.36
2018-06-27T10:01:53.961Z,46.60
2018-06-27T10:02:58.685Z,46.81
2018-06-27T10:04:03.622Z,46.75
2018-06-27T10:05:08.255Z,47.01
2018-06-27T10:06:12.813Z,47.13
2018-06-27T10:07:19.318Z,47.07
2018-06-27T10:08:25.674Z,47.14
2018-06-27T10:09:31.715Z,46.54
2018-06-27T10:10:37.639Z,46.52
2018-06-27T10:11:42.730Z,45.53
2018-06-27T10:12:49.126Z,45.30
2018-06-27T10:13:53.670Z,44.61
2018-06-27T10:14:58.615Z,44.21
2018-06-27T10:16:04.023Z,44.18
2018-06-27T10:17:10.330Z,44.03
2018-06-27T10:18:15.012Z,44.08
2018-06-27T10:19:23.429Z,43.89
2018-06-27T10:20:28.130Z,43.47
2018-06-27T10:21:32.961Z,43.11
2018-06-27T10:22:37.734Z,43.23
2018-06-27T10:23:42.333Z,43.06
2018-06-27T10:24:48.155Z,42.60
2018-06-27T10:25:58.888Z,42.45
2018-06-27T10:27:12.358Z,42.10
2018-06-27T10:28:20.941Z,41.43
2018-06-27T10:29:25.880Z,41.60
2018-06-27T10:30:42.056Z,41.19
2018-06-27T10:31:49.612Z,40.77
2018-06-27T10:33:00.213Z,40.46
2018-06-27T10:34:07.309Z,40.78
2018-06-27T10:35:14.789Z,40.15
2018-06-27T10:36:24.611Z,40.11
2018-06-27T10:37:33.327Z,40.06
2018-06-27T10:38:39.725Z,40.16
2018-06-27T10:39:45.070Z,39.76
2018-06-27T10:40:50.645Z,39.82
2018-06-27T10:41:55.312Z,39.84
2018-06-27T10:43:01.622Z,39.95
2018-06-27T10:44:08.652Z,39.38
2018-06-27T10:45:15.080Z,39.77
2018-06-27T10:46:19.745Z,39.65
2018-06-27T10:47:24.485Z,39.62
2018-06-27T10:48:29.966Z,40.14
2018-06-27T10:49:34.597Z,40.09
2018-06-27T10:50:40.178Z,40.60
2018-06-27T10:51:46.611Z,40.74
2018-06-27T10:52:52.689Z,40.66
2018-06-27T10:53:57.538Z,40.95
2018-06-27T10:55:06.329Z,40.63
2018-06-27T10:56:13.818Z,40.81
2018-06-27T10:57:18.637Z,40.91
2018-06-27T10:58:24.059Z,40.25
2018-06-27T10:59:29.659Z,40.41
2018-06-27T11:00:34.866Z,40.12
2018-06-27T11:01:41.921Z,39.85
2018-06-27T11:02:47.769Z,39.87
2018-06-27T11:03:52.461Z,39.46
2018-06-27T11:04:57.063Z,39.29
2018-06-27T11:06:02.724Z,39.18
2018-06-27T11:07:07.834Z,39.21
2018-06-27T11:08:12.858Z,39.19
2018-06-27T11:09:17.990Z,39.21
2018-06-27T11:10:22.752Z,39.14
2018-06-27T11:11:28.835Z,39.24
2018-06-27T11:12:35.034Z,39.64
2018-06-27T11:13:41.435Z,40.07
2018-06-27T11:14:46.441Z,39.67
2018-06-27T11:15:51.116Z,39.71
2018-06-27T11:16:55.822Z,39.48
2018-06-27T11:18:00.337Z,39.29
2018-06-27T11:19:20.367Z,39.38
2018-06-27T11:20:29.271Z,38.63
2018-06-27T11:21:35.170Z,39.06
2018-06-27T11:22:41.360Z,39.07
2018-06-27T11:23:47.294Z,39.09
2018-06-27T11:24:52.442Z,38.65
2018-06-27T11:25:58.580Z,38.66
2018-06-27T11:27:03.471Z,38.60
2018-06-27T11:28:09.878Z,38.41
2018-06-27T11:29:14.502Z,38.35
2018-06-27T11:30:20.421Z,38.19
2018-06-27T11:31:28.853Z,38.34
2018-06-27T11:32:33.682Z,38.11
2018-06-27T11:33:39.946Z,37.80
2018-06-27T11:34:44.487Z,38.06
2018-06-27T11:35:49.029Z,37.42
2018-06-27T11:36:55.312Z,37.23
2018-06-27T11:37:59.931Z,37.25
2018-06-27T11:39:07.823Z,37.38
2018-06-27T11:40:13.275Z,37.64
2018-06-27T11:41:19.165Z,37.42
2018-06-27T11:42:26.090Z,37.48
2018-06-27T11:43:31.284Z,37.38
2018-06-27T11:44:35.842Z,37.04
2018-06-27T11:45:40.916Z,37.38
2018-06-27T11:46:46.360Z,37.38
2018-06-27T11:47:50.882Z,36.76
2018-06-27T11:48:57.030Z,36.80
2018-06-27T11:50:03.002Z,36.71
2018-06-27T11:51:08.543Z,37.11
2018-06-27T11:52:14.074Z,36.84
2018-06-27T11:53:18.788Z,36.50
2018-06-27T11:54:26.421Z,35.75
2018-06-27T11:55:33.798Z,35.31
2018-06-27T11:56:39.390Z,34.96
2018-06-27T11:57:45.864Z,34.50
2018-06-27T11:58:51.747Z,34.28
2018-06-27T11:59:56.279Z,34.43
2018-06-27T12:01:01.743Z,33.82
2018-06-27T12:02:06.296Z,33.34
2018-06-27T12:03:11.213Z,33.18
2018-06-27T12:04:16.341Z,32.93
2018-06-27T12:05:22.662Z,33.46
2018-06-27T12:06:28.218Z,33.68
2018-06-27T12:07:32.791Z,33.48
2018-06-27T12:08:38.893Z,33.92
2018-06-27T12:09:44.425Z,33.95
2018-06-27T12:10:50.550Z,34.40
2018-06-27T12:11:55.632Z,34.55
2018-06-27T12:13:02.732Z,34.54
2018-06-27T12:14:07.399Z,33.70
2018-06-27T12:15:12.030Z,32.26
2018-06-27T12:16:17.942Z,32.09
2018-06-27T12:17:24.941Z,31.88
2018-06-27T12:18:30.028Z,31.16
2018-06-27T12:19:35.791Z,31.04
2018-06-27T12:20:40.400Z,31.05
2018-06-27T12:21:47.289Z,31.37
2018-06-27T12:22:52.097Z,31.58
2018-06-27T12:23:57.175Z,31.60
2018-06-27T12:25:01.798Z,30.91
2018-06-27T12:26:08.479Z,30.83
2018-06-27T12:27:13.622Z,30.95
2018-06-27T12:28:20.103Z,30.38
2018-06-27T12:29:24.846Z,29.94
2018-06-27T12:30:31.796Z,30.04
2018-06-27T12:31:37.518Z,29.51
2018-06-27T12:32:43.962Z,28.97
2018-06-27T12:33:50.400Z,29.44
2018-06-27T12:35:00.845Z,29.12
2018-06-27T12:36:07.189Z,29.05
2018-06-27T12:37:15.130Z,29.17
2018-06-27T12:38:22.039Z,29.47
2018-06-27T12:39:29.948Z,29.02
2018-06-27T12:40:35.738Z,29.00
2018-06-27T12:41:41.646Z,29.16
2018-06-27T12:42:46.344Z,29.81
2018-06-27T12:43:51.232Z,29.54
2018-06-27T12:44:55.848Z,29.35
2018-06-27T12:46:02.535Z,29.48
2018-06-27T12:47:09.439Z,29.02
2018-06-27T12:48:15.369Z,28.65
2018-06-27T12:49:21.272Z,28.31
2018-06-27T12:50:26.381Z,27.95
2018-06-27T12:51:34.780Z,28.21
2018-06-27T12:52:39.607Z,28.07
2018-06-27T12:53:44.737Z,28.11
2018-06-27T12:54:51.539Z,28.03
2018-06-27T12:55:56.267Z,27.95
2018-06-27T12:57:02.618Z,28.28
2018-06-27T12:58:08.501Z,28.38
2018-06-27T12:59:13.460Z,28.69
2018-06-27T13:00:18.142Z,28.66
2018-06-27T13:01:22.808Z,28.80
2018-06-27T13:02:27.745Z,29.38
2018-06-27T13:03:33.288Z,28.79
2018-06-27T13:04:38.769Z,28.72
2018-06-27T13:05:43.559Z,29.12
2018-06-27T13:06:49.821Z,28.72
2018-06-27T13:07:55.882Z,29.43
2018-06-27T13:09:00.614Z,29.83
2018-06-27T13:10:10.201Z,29.73
2018-06-27T13:11:14.885Z,30.07
2018-06-27T13:12:23.390Z,29.96
2018-06-27T13:13:30.264Z,30.43
2018-06-27T13:14:34.853Z,30.51
2018-06-27T13:15:40.642Z,30.39
2018-06-27T13:16:48.979Z,30.84
2018-06-27T13:17:55.470Z,30.67
2018-06-27T13:19:01.077Z,30.92
2018-06-27T13:20:07.229Z,31.14
2018-06-27T13:21:13.983Z,30.85
2018-06-27T13:22:19.654Z,30.75
2018-06-27T13:23:27.084Z,31.37
2018-06-27T13:24:35.585Z,31.40
2018-06-27T13:25:40.189Z,31.66
2018-06-27T13:26:46.671Z,31.74
2018-06-27T13:27:55.810Z,32.27
2018-06-27T13:29:04.291Z,32.40
2018-06-27T13:30:10.992Z,32.92
2018-06-27T13:31:17.919Z,33.15
2018-06-27T13:32:24.847Z,33.03
2018-06-27T13:33:30.647Z,32.81
2018-06-27T13:34:37.469Z,32.64
2018-06-27T13:35:43.252Z,32.66
2018-06-27T13:36:47.821Z,32.66
2018-06-27T13:37:53.611Z,32.74
2018-06-27T13:39:00.049Z,32.86
2018-06-27T13:40:08.651Z,32.82
2018-06-27T13:41:13.969Z,33.20
2018-06-27T13:42:19.154Z,33.28
2018-06-27T13:43:24.008Z,33.19
2018-06-27T13:44:31.757Z,33.00
2018-06-27T13:45:40.396Z,32.84
2018-06-27T13:46:48.573Z,32.65
2018-06-27T13:47:55.007Z,32.61
2018-06-27T13:49:00.120Z,32.06
2018-06-27T13:50:06.416Z,32.27
2018-06-27T13:51:11.122Z,32.10
2018-06-27T13:52:16.345Z,31.62
2018-06-27T13:53:21.275Z,32.28
2018-06-27T13:54:25.786Z,31.83
2018-06-27T13:55:30.672Z,31.85
2018-06-27T13:56:35.302Z,31.87
2018-06-27T13:57:40.678Z,31.72
2018-06-27T13:58:45.588Z,31.60
2018-06-27T13:59:50.237Z,31.32
2018-06-27T14:00:54.778Z,31.42
2018-06-27T14:02:01.730Z,31.43
2018-06-27T14:03:06.394Z,31.61
2018-06-27T14:04:11.506Z,31.46